Time;durP1;ratioP1;P1;durP2;ratioP2;P2;SDS_P1;SDS_P2;PMS_P1;PMS_P2;Temp;Humidity;BMP_temperature;BMP_pressure;BME280_temperature;BME280_humidity;BME280_pressure;Samples;Min_cycle;Max_cycle;Signal;HPM_P1;HPM_P2
2022/03/01 05:32:44;;;;;;;27.70;13.03;;;;;;;;;;4979309;28;20477;-53
2022/03/01 05:35:13;;;;;;;23.10;13.17;;;;;;;;;;4979376;28;20431;-54
2022/03/01 05:37:39;;;;;;;28.17;12.20;;;;;;;;;;4976436;28;20422;-54
2022/03/01 05:40:06;;;;;;;22.40;12.63;;;;;;;;;;4981017;28;20838;-54
2022/03/01 05:42:33;;;;;;;22.87;12.87;;;;;;;;;;4974015;28;20442;-54
2022/03/01 05:44:59;;;;;;;21.73;12.13;;;;;;;;;;4976815;28;20438;-54
2022/03/01 05:47:26;;;;;;;20.73;12.00;;;;;;;;;;4965918;28;20427;-56
2022/03/01 05:49:52;;;;;;;19.30;10.77;;;;;;;;;;4982355;28;20518;-55
2022/03/01 05:52:18;;;;;;;27.20;12.33;;;;;;;;;;4979291;28;20443;-56
2022/03/01 05:54:45;;;;;;;20.27;11.40;;;;;;;;;;4981751;28;20809;-56
2022/03/01 05:57:11;;;;;;;19.90;11.80;;;;;;;;;;4980684;28;20469;-56
2022/03/01 05:59:37;;;;;;;21.10;11.80;;;;;;;;;;4980882;28;20462;-60
2022/03/01 06:02:03;;;;;;;23.93;11.93;;;;;;;;;;4979520;28;20952;-56
2022/03/01 06:04:29;;;;;;;22.70;10.97;;;;;;;;;;4979480;28;20431;-57
2022/03/01 06:06:55;;;;;;;20.50;11.63;;;;;;;;;;4965383;28;20518;-57
2022/03/01 06:09:21;;;;;;;17.00;10.67;;;;;;;;;;4964689;28;20929;-54
2022/03/01 06:11:47;;;;;;;34.83;11.00;;;;;;;;;;4971281;28;20433;-57
2022/03/01 06:14:13;;;;;;;23.70;11.10;;;;;;;;;;4978168;28;20473;-56
2022/03/01 06:16:39;;;;;;;23.27;11.30;;;;;;;;;;4980421;28;20485;-57
2022/03/01 06:19:05;;;;;;;21.70;11.13;;;;;;;;;;4980433;28;20513;-57
2022/03/01 06:21:31;;;;;;;20.03;11.90;;;;;;;;;;4973743;28;20906;-56
2022/03/01 06:23:57;;;;;;;16.97;8.83;;;;;;;;;;4966813;28;20415;-56
2022/03/01 06:26:23;;;;;;;22.60;12.83;;;;;;;;;;4970955;28;20777;-57
2022/03/01 06:28:53;;;;;;;23.80;11.43;;;;;;;;;;4963770;28;20420;-55
2022/03/01 06:31:19;;;;;;;23.23;10.70;;;;;;;;;;4963155;28;20423;-55
2022/03/01 06:33:45;;;;;;;23.47;12.57;;;;;;;;;;4966311;28;20427;-55
2022/03/01 06:36:11;;;;;;;18.63;10.70;;;;;;;;;;4966513;28;20456;-54
2022/03/01 06:38:37;;;;;;;22.17;10.80;;;;;;;;;;4966205;28;20921;-54
2022/03/01 06:41:03;;;;;;;21.30;11.50;;;;;;;;;;4966261;28;20909;-53
2022/03/01 06:43:29;;;;;;;23.40;12.07;;;;;;;;;;4963708;28;20795;-56
2022/03/01 06:45:55;;;;;;;26.27;11.73;;;;;;;;;;4962119;28;20518;-66
2022/03/01 06:48:21;;;;;;;21.77;11.73;;;;;;;;;;4962736;28;20836;-56
2022/03/01 06:50:47;;;;;;;19.60;10.30;;;;;;;;;;4966208;28;20422;-56
2022/03/01 06:53:14;;;;;;;26.60;12.53;;;;;;;;;;4965814;28;20424;-54
2022/03/01 06:55:40;;;;;;;19.53;11.03;;;;;;;;;;4962998;28;20554;-60
2022/03/01 06:58:06;;;;;;;24.67;11.33;;;;;;;;;;4962837;28;20460;-57
2022/03/01 07:00:32;;;;;;;23.17;10.70;;;;;;;;;;4964462;28;20479;-59
2022/03/01 07:02:58;;;;;;;22.83;11.23;;;;;;;;;;4965672;28;20411;-56
2022/03/01 07:05:24;;;;;;;18.43;10.30;;;;;;;;;;4965455;28;20419;-57
2022/03/01 07:07:50;;;;;;;19.77;11.27;;;;;;;;;;4963990;28;20411;-56
2022/03/01 07:10:16;;;;;;;17.10;8.90;;;;;;;;;;4965289;28;20447;-56
2022/03/01 07:12:43;;;;;;;16.53;8.50;;;;;;;;;;4962855;28;20416;-53
2022/03/01 07:15:10;;;;;;;17.43;10.27;;;;;;;;;;4962494;28;20408;-60
2022/03/01 07:17:36;;;;;;;18.50;10.47;;;;;;;;;;4963980;28;20420;-59
2022/03/01 07:20:02;;;;;;;15.20;8.60;;;;;;;;;;4965811;28;20422;-55
2022/03/01 07:22:28;;;;;;;16.80;9.97;;;;;;;;;;4962301;28;20413;-55
2022/03/01 07:24:54;;;;;;;14.40;9.07;;;;;;;;;;4943277;28;20557;-54
2022/03/01 07:27:20;;;;;;;18.10;10.63;;;;;;;;;;4960001;28;20192;-55
2022/03/01 07:29:45;;;;;;;20.97;10.40;;;;;;;;;;4964901;28;20843;-55
2022/03/01 07:32:11;;;;;;;18.73;11.03;;;3.30;99.90;;;;;;4964418;28;20732;-55
2022/03/01 07:34:37;;;;;;;18.10;10.73;;;6.20;99.90;;;;;;4962458;28;20641;-55
2022/03/01 07:37:04;;;;;;;16.60;9.90;;;6.10;99.90;;;;;;4961361;28;20666;-55
2022/03/01 07:39:29;;;;;;;16.70;10.23;;;6.10;99.90;;;;;;4969061;28;20176;-55
2022/03/01 07:41:55;;;;;;;18.70;10.50;;;5.90;99.90;;;;;;4961376;28;20956;-55
2022/03/01 07:44:21;;;;;;;17.37;10.43;;;5.60;99.90;;;;;;4961126;28;20506;-55
2022/03/01 07:46:46;;;;;;;16.80;10.30;;;5.30;99.90;;;;;;4964473;28;20192;-54
2022/03/01 07:49:12;;;;;;;24.90;9.33;;;5.30;99.90;;;;;;4962856;28;20294;-55
2022/03/01 07:51:37;;;;;;;19.13;9.80;;;5.20;99.90;;;;;;4962242;28;20195;-55
2022/03/01 07:54:04;;;;;;;12.80;9.03;;;5.40;99.90;;;;;;4951589;29;20669;-54
2022/03/01 07:56:29;;;;;;;13.90;8.90;;;5.60;99.90;;;;;;4961818;28;20208;-54
2022/03/01 07:58:55;;;;;;;13.20;9.70;;;5.60;99.90;;;;;;4964030;28;20419;-55
2022/03/01 08:01:21;;;;;;;17.47;9.73;;;5.20;99.90;;;;;;4963952;28;20263;-54
2022/03/01 08:03:47;;;;;;;17.57;11.30;;;4.90;99.90;;;;;;4960748;28;20203;-55
2022/03/01 08:06:13;;;;;;;18.30;9.43;;;5.00;99.90;;;;;;4951407;29;20427;-54
2022/03/01 08:08:39;;;;;;;16.40;8.87;;;5.60;99.90;;;;;;4968224;28;20435;-53
2022/03/01 08:11:05;;;;;;;15.73;10.30;;;5.50;99.90;;;;;;4960718;28;20706;-56
2022/03/01 08:13:31;;;;;;;14.67;8.70;;;5.70;99.90;;;;;;4962040;28;20272;-54
2022/03/01 08:15:57;;;;;;;18.93;10.03;;;5.70;99.90;;;;;;4964077;28;20208;-55
2022/03/01 08:18:23;;;;;;;18.00;9.57;;;6.10;99.90;;;;;;4963511;28;20773;-58
2022/03/01 08:20:49;;;;;;;14.87;9.97;;;6.30;99.90;;;;;;4960639;28;20611;-57
2022/03/01 08:23:14;;;;;;;14.87;9.50;;;6.30;99.90;;;;;;4960458;28;20200;-57
2022/03/01 08:25:40;;;;;;;15.80;9.43;;;6.20;99.90;;;;;;4963294;28;20422;-57
2022/03/01 08:28:06;;;;;;;23.77;10.90;;;6.10;99.90;;;;;;4963775;28;20210;-57
2022/03/01 08:30:32;;;;;;;14.50;9.43;;;5.90;99.90;;;;;;4962109;28;20195;-57
2022/03/01 08:32:58;;;;;;;17.50;8.37;;;5.70;99.90;;;;;;4960351;28;20311;-58
2022/03/01 08:35:24;;;;;;;13.37;8.03;;;5.70;99.90;;;;;;4943311;28;20184;-57
2022/03/01 08:37:51;;;;;;;21.17;9.53;;;5.70;99.90;;;;;;4963591;28;20431;-57
2022/03/01 08:40:19;;;;;;;12.23;7.97;;;5.40;99.90;;;;;;4964004;28;20236;-57
2022/03/01 08:42:45;;;;;;;18.80;9.70;;;5.20;99.90;;;;;;4963524;28;20847;-57
2022/03/01 08:45:11;;;;;;;16.27;10.00;;;5.10;99.90;;;;;;4946157;28;20434;-57
2022/03/01 08:47:38;;;;;;;16.20;10.00;;;5.00;99.90;;;;;;4943853;28;20431;-57
2022/03/01 08:50:05;;;;;;;15.57;9.97;;;5.00;99.90;;;;;;4959972;28;20482;-58
2022/03/01 08:52:30;;;;;;;15.93;9.40;;;5.00;99.90;;;;;;4961632;28;20833;-57
2022/03/01 08:54:56;;;;;;;18.50;10.20;;;5.00;99.90;;;;;;4963419;28;20419;-57
2022/03/01 08:57:22;;;;;;;22.17;9.60;;;5.10;99.90;;;;;;4955428;28;20212;-57
2022/03/01 08:59:48;;;;;;;15.00;9.53;;;5.50;99.90;;;;;;4967822;28;20177;-57
2022/03/01 09:02:17;;;;;;;12.67;8.73;;;5.80;99.90;;;;;;4960004;28;20262;-57
2022/03/01 09:04:43;;;;;;;13.67;8.37;;;6.20;99.90;;;;;;4963191;28;20587;-58
2022/03/01 09:07:09;;;;;;;20.30;9.27;;;6.40;99.90;;;;;;4962507;28;20435;-57
2022/03/01 09:09:34;;;;;;;13.43;8.80;;;6.50;99.90;;;;;;4963885;28;20651;-57
2022/03/01 09:12:00;;;;;;;13.67;8.73;;;6.40;99.90;;;;;;4966963;28;20192;-58
2022/03/01 09:14:26;;;;;;;18.60;9.70;;;6.50;99.90;;;;;;4965938;28;20199;-57
2022/03/01 09:16:51;;;;;;;14.90;9.00;;;6.80;99.90;;;;;;4963523;28;20216;-58
2022/03/01 09:19:17;;;;;;;16.73;9.20;;;7.20;99.90;;;;;;4963485;28;20184;-57
2022/03/01 09:21:43;;;;;;;15.53;8.53;;;7.50;99.90;;;;;;4966586;28;20235;-57
2022/03/01 09:24:09;;;;;;;16.67;9.10;;;7.10;99.90;;;;;;4966924;28;20184;-57
2022/03/01 09:26:34;;;;;;;13.87;8.57;;;7.30;99.90;;;;;;4964896;28;20536;-57
2022/03/01 09:29:01;;;;;;;14.90;10.07;;;7.60;99.90;;;;;;4963386;28;20462;-57
2022/03/01 09:31:26;;;;;;;14.90;10.37;;;7.60;99.90;;;;;;4963005;28;20215;-57
2022/03/01 09:33:52;;;;;;;14.13;9.13;;;7.50;99.90;;;;;;4966192;28;20783;-57
2022/03/01 09:36:18;;;;;;;13.53;8.90;;;7.50;99.90;;;;;;4966621;28;20208;-57
2022/03/01 09:38:44;;;;;;;17.77;11.63;;;7.40;99.90;;;;;;4966214;28;20545;-57
2022/03/01 09:41:13;;;;;;;18.73;10.33;;;7.20;99.90;;;;;;4966485;28;20653;-57
2022/03/01 09:43:40;;;;;;;12.90;9.07;;;7.20;99.90;;;;;;4963846;28;20420;-57
2022/03/01 09:46:07;;;;;;;13.37;8.83;;;7.30;99.90;;;;;;4962889;28;20491;-57
2022/03/01 09:48:34;;;;;;;15.53;8.57;;;7.40;99.90;;;;;;4964503;28;20494;-57
2022/03/01 09:51:01;;;;;;;12.83;8.10;;;7.40;99.90;;;;;;4966392;28;20489;-58
2022/03/01 09:53:27;;;;;;;17.73;8.40;;;7.80;99.90;;;;;;4947999;28;20987;-57
2022/03/01 09:55:54;;;;;;;11.50;7.93;;;8.10;99.90;;;;;;4962890;28;20523;-57
2022/03/01 09:58:20;;;;;;;15.40;8.80;;;8.50;99.90;;;;;;4962756;28;20452;-57
2022/03/01 10:00:47;;;;;;;22.03;9.53;;;8.90;99.90;;;;;;4965981;28;20463;-57
2022/03/01 10:03:17;;;;;;;18.30;10.20;;;9.10;99.90;;;;;;4966083;28;20423;-57
2022/03/01 10:05:43;;;;;;;14.30;9.13;;;8.90;99.90;;;;;;4962853;28;20443;-57
2022/03/01 10:08:20;;;;;;;15.63;8.37;;;9.40;99.90;;;;;;4966876;28;20434;-58
2022/03/01 10:10:53;;;;;;;16.17;9.63;;;9.60;99.90;;;;;;4966188;28;20423;-57
2022/03/01 10:13:36;;;;;;;14.37;9.50;;;9.90;99.90;;;;;;4965761;28;20474;-58
2022/03/01 10:16:04;;;;;;;18.60;9.90;;;9.70;99.90;;;;;;4968109;28;20976;-57
2022/03/01 10:18:33;;;;;;;16.40;9.53;;;10.00;99.90;;;;;;4947114;28;20439;-57
2022/03/01 10:21:05;;;;;;;14.03;10.13;;;10.40;99.90;;;;;;4944801;28;20486;-57
2022/03/01 10:23:32;;;;;;;12.67;9.07;;;10.50;99.90;;;;;;4963784;28;20423;-57
2022/03/01 10:25:57;;;;;;;11.67;8.37;;;10.30;99.90;;;;;;4965504;28;20483;-57
2022/03/01 10:28:37;;;;;;;14.30;9.93;;;10.30;99.90;;;;;;4947799;28;20961;-57
2022/03/01 10:31:14;;;;;;;14.40;9.57;;;10.00;99.90;;;;;;4962058;28;20192;-58
2022/03/01 10:34:00;;;;;;;12.70;8.70;;;10.10;99.90;;;;;;4964866;28;20442;-58
2022/03/01 10:36:48;;;;;;;12.13;9.03;;;10.40;99.90;;;;;;4947079;28;20982;-58
2022/03/01 10:39:16;;;;;;;11.10;9.40;;;10.70;99.90;;;;;;4968562;28;20783;-57
2022/03/01 10:41:44;;;;;;;15.00;9.67;;;10.40;99.90;;;;;;4945099;28;20424;-57
2022/03/01 10:44:15;;;;;;;14.90;9.50;;;10.60;99.90;;;;;;4961932;28;20782;-58
2022/03/01 10:46:43;;;;;;;13.60;9.23;;;10.40;99.90;;;;;;4964483;28;20427;-58
2022/03/01 10:49:12;;;;;;;15.00;8.73;;;10.50;99.90;;;;;;4965086;28;20423;-57
2022/03/01 10:52:01;;;;;;;14.00;9.00;;;10.30;99.90;;;;;;4962739;28;20496;-57
2022/03/01 10:54:29;;;;;;;15.10;10.00;;;10.20;99.90;;;;;;4962756;28;20452;-58
2022/03/01 10:56:55;;;;;;;17.77;8.90;;;10.10;99.90;;;;;;4964931;28;20470;-57
2022/03/01 10:59:26;;;;;;;17.63;10.10;;;10.20;99.90;;;;;;4965069;28;20466;-58
2022/03/01 11:01:52;;;;;;;14.43;9.67;;;10.40;99.90;;;;;;4961807;28;20418;-57
2022/03/01 11:04:21;;;;;;;15.10;8.53;;;10.70;99.90;;;;;;4961645;28;20451;-57
2022/03/01 11:06:48;;;;;;;12.10;8.40;;;10.40;99.90;;;;;;4964854;28;20819;-57
2022/03/01 11:09:15;;;;;;;14.50;9.13;;;10.10;99.90;;;;;;4963180;28;20420;-57
2022/03/01 11:11:42;;;;;;;16.50;10.07;;;9.90;99.90;;;;;;4964195;28;20426;-58
2022/03/01 11:14:10;;;;;;;9.90;7.70;;;10.30;99.90;;;;;;4964690;28;20407;-57
2022/03/01 11:17:09;;;;;;;14.40;9.03;;;10.30;99.90;;;;;;4962165;28;20454;-57
2022/03/01 11:20:00;;;;;;;13.70;8.70;;;10.30;99.90;;;;;;4963477;28;20561;-57
2022/03/01 11:22:46;;;;;;;11.53;8.23;;;10.00;99.90;;;;;;4946355;28;20874;-57
2022/03/01 11:25:20;;;;;;;9.93;8.83;;;9.70;99.90;;;;;;4950694;28;20948;-57
2022/03/01 11:27:48;;;;;;;9.77;6.90;;;9.90;99.90;;;;;;4964548;28;20908;-57
2022/03/01 11:30:16;;;;;;;15.27;7.60;;;10.30;99.90;;;;;;4964145;28;20431;-57
2022/03/01 11:32:44;;;;;;;13.97;8.90;;;10.30;99.90;;;;;;4960780;28;20464;-58
2022/03/01 11:35:27;;;;;;;12.80;7.60;;;10.50;99.90;;;;;;4961181;28;20957;-61
2022/03/01 11:38:08;;;;;;;13.63;8.70;;;10.70;99.90;;;;;;4964511;28;20423;-60
2022/03/01 11:41:02;;;;;;;17.43;9.47;;;11.10;99.90;;;;;;4964402;28;20915;-59
2022/03/01 11:43:38;;;;;;;20.43;8.83;;;11.30;99.90;;;;;;4962500;28;20785;-58
2022/03/01 11:46:18;;;;;;;12.83;8.07;;;10.80;99.90;;;;;;4958740;28;20504;-60
2022/03/01 11:48:56;;;;;;;14.37;8.70;;;10.80;99.90;;;;;;4961210;28;20840;-59
2022/03/01 11:51:55;;;;;;;12.80;7.53;;;10.80;99.90;;;;;;4960989;28;20412;-58
2022/03/01 11:54:37;;;;;;;15.60;8.60;;;10.80;99.90;;;;;;4939051;28;20439;-62
2022/03/01 11:57:05;;;;;;;16.60;7.03;;;10.50;99.90;;;;;;4960874;28;20487;-61
2022/03/01 11:59:36;;;;;;;16.80;7.10;;;10.60;99.90;;;;;;4961985;28;20475;-59
2022/03/01 12:02:09;;;;;;;12.30;7.80;;;10.30;99.90;;;;;;4964137;28;20423;-61
2022/03/01 12:04:47;;;;;;;10.53;7.67;;;10.10;99.90;;;;;;4944753;28;20435;-59
2022/03/01 12:07:35;;;;;;;10.00;8.10;;;10.20;99.90;;;;;;4962320;28;20463;-61
2022/03/01 12:10:05;;;;;;;13.20;7.97;;;10.20;99.90;;;;;;4960793;28;20414;-59
2022/03/01 12:12:46;;;;;;;12.33;7.90;;;10.00;99.90;;;;;;4945024;28;20510;-61
2022/03/01 12:15:12;;;;;;;8.60;7.10;;;10.00;99.90;;;;;;4963927;28;20415;-61
2022/03/01 12:17:46;;;;;;;11.13;7.97;;;10.00;99.90;;;;;;4961275;28;20467;-59
2022/03/01 12:20:20;;;;;;;14.63;8.30;;;9.90;99.90;;;;;;4960604;28;20420;-58
2022/03/01 12:22:58;;;;;;;13.60;8.23;;;10.00;99.90;;;;;;4963825;28;20422;-59
2022/03/01 12:25:26;;;;;;;12.47;8.03;;;9.90;99.90;;;;;;4945801;28;20489;-58
2022/03/01 12:27:53;;;;;;;19.00;7.93;;;10.20;99.90;;;;;;4960617;28;20969;-60
2022/03/01 12:30:21;;;;;;;10.03;7.70;;;10.50;99.90;;;;;;4960295;28;20420;-59
2022/03/01 12:32:56;;;;;;;16.13;7.50;;;10.80;99.90;;;;;;4963510;28;20501;-59
2022/03/01 12:35:23;;;;;;;15.53;7.53;;;10.90;99.90;;;;;;4963356;28;20422;-57
2022/03/01 12:37:50;;;;;;;13.20;7.53;;;11.00;99.90;;;;;;4961660;28;20439;-59
2022/03/01 12:40:42;;;;;;;12.10;8.30;;;11.10;99.90;;;;;;4964327;28;20479;-60
2022/03/01 12:43:35;;;;;;;8.97;7.10;;;11.20;99.90;;;;;;4963577;28;20415;-62
2022/03/01 12:46:02;;;;;;;10.70;7.63;;;11.40;99.90;;;;;;4947027;29;20490;-59
2022/03/01 12:48:28;;;;;;;10.67;8.07;;;11.30;99.90;;;;;;4947837;28;20446;-58
2022/03/01 12:50:53;;;;;;;12.40;8.20;;;11.40;99.90;;;;;;4967362;28;20426;-61
2022/03/01 12:53:21;;;;;;;13.07;8.40;;;11.10;99.90;;;;;;4967414;28;20180;-58
2022/03/01 12:56:08;;;;;;;14.13;8.73;;;11.50;99.90;;;;;;4967388;28;20210;-59
2022/03/01 12:58:35;;;;;;;13.77;8.27;;;11.60;99.90;;;;;;4948223;28;20824;-59
2022/03/01 13:01:20;;;;;;;7.67;6.87;;;11.80;99.90;;;;;;4946528;28;20431;-60
2022/03/01 13:03:50;;;;;;;14.80;8.40;;;11.30;99.90;;;;;;4967350;28;20419;-59
2022/03/01 13:06:19;;;;;;;29.93;8.00;;;11.40;99.90;;;;;;4967074;28;20419;-59
2022/03/01 13:09:04;;;;;;;12.50;7.77;;;11.30;99.90;;;;;;4963835;28;20420;-60
2022/03/01 13:11:34;;;;;;;10.00;7.13;;;11.50;99.90;;;;;;4965192;28;20412;-59
2022/03/01 13:14:06;;;;;;;10.53;7.50;;;11.30;99.90;;;;;;4965297;28;20439;-58
2022/03/01 13:16:37;;;;;;;13.40;7.40;;;11.20;99.90;;;;;;4947911;28;20606;-61
2022/03/01 13:19:17;;;;;;;10.77;8.13;;;11.50;99.90;;;;;;4963932;28;20412;-58
2022/03/01 13:21:52;;;;;;;17.83;8.23;;;11.60;99.90;;;;;;4966628;28;20419;-62
2022/03/01 13:24:30;;;;;;;10.87;7.30;;;11.50;99.90;;;;;;4965478;28;20430;-61
2022/03/01 13:26:58;;;;;;;11.60;7.30;;;11.40;99.90;;;;;;4934995;28;20434;-61
2022/03/01 13:29:31;;;;;;;11.60;7.53;;;11.10;99.90;;;;;;4948786;28;20427;-59
2022/03/01 13:32:09;;;;;;;10.13;8.20;;;11.00;99.90;;;;;;4963256;28;20562;-59
2022/03/01 13:34:42;;;;;;;10.70;7.60;;;10.80;99.90;;;;;;4947872;28;20431;-59
2022/03/01 13:37:26;;;;;;;12.80;7.33;;;10.80;99.90;;;;;;4948249;28;20622;-59
2022/03/01 13:39:56;;;;;;;14.33;7.53;;;10.90;99.90;;;;;;4952615;29;20439;-61
2022/03/01 13:42:23;;;;;;;8.80;6.73;;;10.80;99.90;;;;;;4962053;28;20531;-59
2022/03/01 13:44:52;;;;;;;11.37;8.10;;;10.80;99.90;;;;;;4966400;28;20934;-60
2022/03/01 13:47:27;;;;;;;14.57;8.83;;;10.60;99.90;;;;;;4949181;28;20431;-60
2022/03/01 13:49:58;;;;;;;10.33;7.20;;;10.60;99.90;;;;;;4967343;28;20832;-58
2022/03/01 13:52:34;;;;;;;11.47;9.07;;;10.50;99.90;;;;;;4965953;28;20506;-60
2022/03/01 13:55:19;;;;;;;12.73;7.93;;;10.50;99.90;;;;;;4962968;28;20820;-59
2022/03/01 13:57:51;;;;;;;13.47;8.00;;;10.40;99.90;;;;;;4948702;28;20475;-59
2022/03/01 14:00:37;;;;;;;11.50;8.53;;;10.40;99.90;;;;;;4966068;28;20415;-60
2022/03/01 14:03:21;;;;;;;12.13;8.17;;;10.40;99.90;;;;;;4951359;28;20438;-59
2022/03/01 14:05:54;;;;;;;11.97;6.67;;;10.30;99.90;;;;;;4966394;28;20415;-57
2022/03/01 14:08:20;;;;;;;12.10;7.50;;;10.40;99.90;;;;;;4966063;28;20419;-57
2022/03/01 14:11:01;;;;;;;12.27;8.57;;;10.40;99.90;;;;;;4966203;28;20427;-58
2022/03/01 14:13:28;;;;;;;12.87;7.70;;;10.40;99.90;;;;;;4965722;28;20420;-58
2022/03/01 14:16:14;;;;;;;10.43;7.80;;;10.30;99.90;;;;;;4965921;28;20741;-58
2022/03/01 14:18:43;;;;;;;11.47;7.37;;;10.20;99.90;;;;;;4963267;28;20419;-57
2022/03/01 14:21:12;;;;;;;10.53;7.17;;;10.10;99.90;;;;;;4962569;28;20424;-57
2022/03/01 14:23:40;;;;;;;13.07;8.00;;;10.20;99.90;;;;;;4947221;28;20475;-57
2022/03/01 14:26:06;;;;;;;12.73;8.40;;;10.20;99.90;;;;;;4965740;28;20433;-57
2022/03/01 14:28:32;;;;;;;10.97;7.67;;;10.20;99.90;;;;;;4963988;28;20415;-57
2022/03/01 14:30:59;;;;;;;11.13;7.20;;;10.20;99.90;;;;;;4967295;28;20419;-57
2022/03/01 14:33:26;;;;;;;16.93;7.80;;;10.20;99.90;;;;;;4964699;28;20226;-57
2022/03/01 14:35:52;;;;;;;10.87;7.87;;;10.20;99.90;;;;;;4962146;28;20498;-58
2022/03/01 14:38:18;;;;;;;12.83;9.27;;;10.00;99.90;;;;;;4969771;28;20419;-58
2022/03/01 14:40:43;;;;;;;16.60;8.57;;;9.80;99.90;;;;;;4965359;28;20770;-57
2022/03/01 14:43:09;;;;;;;13.50;7.80;;;9.80;99.90;;;;;;4965436;28;20539;-58
2022/03/01 14:45:35;;;;;;;15.70;8.20;;;9.80;99.90;;;;;;4963309;28;20223;-57
2022/03/01 14:48:01;;;;;;;11.10;7.20;;;9.70;99.90;;;;;;4961934;28;20511;-58
2022/03/01 14:50:26;;;;;;;10.73;7.10;;;9.70;99.90;;;;;;4962587;28;20220;-57
2022/03/01 14:52:52;;;;;;;8.50;7.27;;;9.60;99.90;;;;;;4965150;28;20188;-58
2022/03/01 14:55:19;;;;;;;15.13;9.07;;;9.70;99.90;;;;;;4965203;28;20188;-58
2022/03/01 14:57:44;;;;;;;11.83;7.27;;;9.60;99.90;;;;;;4961658;28;20666;-58
2022/03/01 15:00:11;;;;;;;15.10;7.63;;;9.80;99.90;;;;;;4961520;28;20430;-57
2022/03/01 15:02:38;;;;;;;9.57;7.27;;;9.70;99.90;;;;;;4962383;28;20589;-57
2022/03/01 15:05:05;;;;;;;10.83;6.83;;;9.70;99.90;;;;;;4959133;28;20424;-57
2022/03/01 15:07:31;;;;;;;10.73;7.20;;;9.60;99.90;;;;;;4962121;28;20590;-57
2022/03/01 15:09:56;;;;;;;12.33;7.90;;;9.60;99.90;;;;;;4964788;28;20972;-58
2022/03/01 15:12:22;;;;;;;11.70;7.70;;;9.40;99.90;;;;;;4964454;28;20176;-58
2022/03/01 15:14:48;;;;;;;16.47;6.93;;;9.30;99.90;;;;;;4961255;28;20200;-57
2022/03/01 15:17:13;;;;;;;13.13;7.43;;;9.20;99.90;;;;;;4961227;28;20231;-57
2022/03/01 15:19:40;;;;;;;12.97;7.00;;;9.00;99.90;;;;;;4963671;28;20187;-57
2022/03/01 15:22:09;;;;;;;11.20;6.60;;;9.00;99.90;;;;;;4964599;28;20184;-57
2022/03/01 15:24:35;;;;;;;13.87;7.80;;;9.10;99.90;;;;;;4962520;28;20470;-57
2022/03/01 15:27:00;;;;;;;14.10;7.50;;;9.00;99.90;;;;;;4961151;28;20565;-57
2022/03/01 15:29:27;;;;;;;11.80;7.97;;;8.90;99.90;;;;;;4961767;28;20898;-57
2022/03/01 15:31:53;;;;;;;13.53;7.40;;;8.90;99.90;;;;;;4964418;28;20216;-58
2022/03/01 15:34:19;;;;;;;10.60;7.60;;;9.00;99.90;;;;;;4964216;28;20482;-57
2022/03/01 15:36:46;;;;;;;10.90;7.93;;;9.10;99.90;;;;;;4961077;28;20974;-58
2022/03/01 15:39:12;;;;;;;16.77;9.03;;;9.10;99.90;;;;;;4967791;28;20426;-58
2022/03/01 15:41:38;;;;;;;9.00;7.07;;;9.10;99.90;;;;;;4961925;28;20482;-57
2022/03/01 15:44:05;;;;;;;11.70;7.53;;;9.00;99.90;;;;;;4960791;28;20420;-57
2022/03/01 15:46:30;;;;;;;13.90;8.33;;;9.10;99.90;;;;;;4962338;28;20185;-57
2022/03/01 15:48:56;;;;;;;12.10;8.57;;;8.90;99.90;;;;;;4964028;28;20777;-57
2022/03/01 15:51:22;;;;;;;10.27;7.37;;;8.90;99.90;;;;;;4964136;28;20693;-57
2022/03/01 15:53:47;;;;;;;10.13;7.77;;;8.80;99.90;;;;;;4960616;28;20685;-57
2022/03/01 15:56:13;;;;;;;9.77;7.63;;;8.70;99.90;;;;;;4960918;28;20211;-58
2022/03/01 15:58:38;;;;;;;10.33;7.67;;;8.60;99.90;;;;;;4962765;28;20184;-58
2022/03/01 16:01:04;;;;;;;12.47;8.60;;;8.50;99.90;;;;;;4964224;28;20176;-59
2022/03/01 16:03:39;;;;;;;10.33;7.87;;;8.40;99.90;;;;;;4962877;28;20190;-59
2022/03/01 16:06:05;;;;;;;16.07;8.10;;;8.20;99.90;;;;;;4960864;28;20199;-60
2022/03/01 16:08:31;;;;;;;11.10;8.07;;;8.20;99.90;;;;;;4967093;28;20439;-62
2022/03/01 16:11:10;;;;;;;17.97;8.50;;;8.30;99.90;;;;;;4943359;29;20444;-60
2022/03/01 16:13:49;;;;;;;11.37;8.40;;;8.30;99.90;;;;;;4962455;28;20935;-60
2022/03/01 16:16:25;;;;;;;13.83;8.73;;;8.20;99.90;;;;;;4963762;28;20861;-59
2022/03/01 16:18:57;;;;;;;18.77;9.93;;;8.10;99.90;;;;;;4951276;28;20855;-61
2022/03/01 16:21:30;;;;;;;12.53;9.10;;;8.10;99.90;;;;;;4952659;28;20419;-59
2022/03/01 16:24:06;;;;;;;13.33;8.50;;;8.10;99.90;;;;;;4948391;28;20424;-62
2022/03/01 16:26:32;;;;;;;13.73;8.27;;;8.10;99.90;;;;;;4951146;28;20763;-60
2022/03/01 16:29:05;;;;;;;11.67;7.73;;;8.00;99.90;;;;;;4952632;28;20499;-59
2022/03/01 16:31:42;;;;;;;16.10;9.97;;;8.00;99.90;;;;;;4968422;28;20419;-59
2022/03/01 16:34:09;;;;;;;14.60;8.87;;;7.90;99.90;;;;;;4967271;28;20486;-61
2022/03/01 16:36:37;;;;;;;21.90;10.83;;;7.90;99.90;;;;;;4968952;28;20526;-64
2022/03/01 16:39:08;;;;;;;22.10;10.70;;;7.90;99.90;;;;;;4975703;28;20930;-65
2022/03/01 16:41:44;;;;;;;18.93;11.23;;;7.90;99.90;;;;;;4968755;28;20411;-62
2022/03/01 16:44:18;;;;;;;19.07;10.70;;;7.90;99.90;;;;;;4949766;29;20429;-61
2022/03/01 16:47:05;;;;;;;18.20;10.60;;;7.70;99.90;;;;;;4953486;28;20429;-63
2022/03/01 16:49:32;;;;;;;13.90;8.43;;;7.80;99.90;;;;;;4968698;28;20422;-61
2022/03/01 16:51:59;;;;;;;15.60;9.47;;;8.00;99.90;;;;;;4949364;29;20510;-63
2022/03/01 16:54:32;;;;;;;19.53;10.87;;;7.90;99.90;;;;;;4967555;28;20415;-63
2022/03/01 16:57:00;;;;;;;36.47;17.97;;;7.70;99.90;;;;;;4952653;28;20546;-61
2022/03/01 16:59:39;;;;;;;33.00;17.50;;;7.90;99.90;;;;;;4951902;28;20414;-63
2022/03/01 17:02:06;;;;;;;38.57;18.87;;;7.90;99.90;;;;;;4949471;29;20490;-62
2022/03/01 17:04:32;;;;;;;39.30;16.50;;;7.80;99.90;;;;;;4968214;28;20423;-62
2022/03/01 17:06:59;;;;;;;19.83;11.77;;;7.80;99.90;;;;;;4968675;28;20834;-62
2022/03/01 17:09:30;;;;;;;28.10;11.40;;;7.60;99.90;;;;;;4967338;28;20428;-64
2022/03/01 17:11:56;;;;;;;21.73;9.30;;;7.50;99.90;;;;;;4970174;28;20505;-63
2022/03/01 17:14:22;;;;;;;13.33;9.63;;;7.40;99.90;;;;;;4969459;28;20423;-64
2022/03/01 17:16:48;;;;;;;13.57;9.33;;;7.40;99.90;;;;;;4962053;29;20467;-60
2022/03/01 17:19:13;;;;;;;16.17;9.50;;;7.40;99.90;;;;;;4970295;28;20261;-58
2022/03/01 17:21:39;;;;;;;20.50;9.73;;;7.30;99.90;;;;;;4971076;28;20211;-59
2022/03/01 17:24:05;;;;;;;14.60;8.70;;;7.30;99.90;;;;;;4978314;28;20558;-58
2022/03/01 17:26:35;;;;;;;14.90;9.00;;;7.30;99.90;;;;;;4975839;28;20665;-58
2022/03/01 17:29:01;;;;;;;14.60;8.87;;;7.40;99.90;;;;;;4974289;28;20960;-59
2022/03/01 17:31:26;;;;;;;14.97;9.77;;;7.30;99.90;;;;;;4972839;28;20960;-60
2022/03/01 17:33:52;;;;;;;13.57;8.40;;;7.30;99.90;;;;;;4973917;28;20467;-60
2022/03/01 17:36:18;;;;;;;12.77;8.53;;;7.30;99.90;;;;;;4973627;28;20234;-61
2022/03/01 17:38:44;;;;;;;14.80;7.90;;;7.20;99.90;;;;;;4956204;28;20294;-59
2022/03/01 17:41:10;;;;;;;10.53;8.50;;;7.20;99.90;;;;;;4973552;28;20183;-59
2022/03/01 17:43:35;;;;;;;16.03;8.90;;;7.20;99.90;;;;;;4973377;28;20184;-60
2022/03/01 17:46:01;;;;;;;15.70;9.37;;;7.10;99.90;;;;;;4973631;28;20685;-59
2022/03/01 17:48:27;;;;;;;11.97;8.20;;;7.10;99.90;;;;;;4973173;28;20641;-59
2022/03/01 17:50:53;;;;;;;21.63;8.77;;;7.10;99.90;;;;;;4973173;28;20184;-61
2022/03/01 17:53:19;;;;;;;12.77;8.00;;;7.00;99.90;;;;;;4973472;28;20392;-59
2022/03/01 17:55:45;;;;;;;11.33;8.03;;;7.00;99.90;;;;;;4974744;28;21005;-59
2022/03/01 17:58:10;;;;;;;14.43;8.33;;;6.90;99.90;;;;;;4975185;28;20553;-58
2022/03/01 18:00:36;;;;;;;16.57;7.87;;;6.80;99.90;;;;;;4973356;28;20246;-59
2022/03/01 18:03:03;;;;;;;13.70;7.73;;;6.80;99.90;;;;;;4973475;28;20188;-58
2022/03/01 18:05:29;;;;;;;15.60;8.47;;;6.80;99.90;;;;;;4972912;28;20180;-60
2022/03/01 18:07:58;;;;;;;15.03;8.33;;;6.70;99.90;;;;;;4973294;28;20446;-59
2022/03/01 18:10:29;;;;;;;14.47;9.20;;;6.70;99.90;;;;;;4973124;28;20176;-61
2022/03/01 18:12:55;;;;;;;9.53;7.77;;;6.70;99.90;;;;;;4972596;28;20526;-61
2022/03/01 18:15:21;;;;;;;12.13;7.57;;;6.60;99.90;;;;;;4972769;28;20525;-61
2022/03/01 18:17:47;;;;;;;18.73;10.00;;;6.60;99.90;;;;;;4972752;28;20466;-61
2022/03/01 18:20:13;;;;;;;13.83;8.80;;;6.50;99.90;;;;;;4972898;28;20439;-61
2022/03/01 18:22:38;;;;;;;12.87;7.93;;;6.40;99.90;;;;;;4973095;28;20195;-60
2022/03/01 18:25:05;;;;;;;12.73;9.17;;;6.40;99.90;;;;;;4972718;28;20179;-60
2022/03/01 18:27:31;;;;;;;16.17;9.53;;;6.30;99.90;;;;;;4971815;28;20188;-60
2022/03/01 18:29:56;;;;;;;15.70;9.13;;;6.20;99.90;;;;;;4955449;28;20447;-60
2022/03/01 18:32:22;;;;;;;10.07;8.03;;;6.20;99.90;;;;;;4973275;28;20226;-60
2022/03/01 18:34:47;;;;;;;15.20;8.80;;;6.20;99.90;;;;;;4972868;28;20192;-60
2022/03/01 18:37:13;;;;;;;12.73;7.90;;;6.10;99.90;;;;;;4977727;28;20756;-61